Time;durP1;ratioP1;P1;durP2;ratioP2;P2;SDS_P1;SDS_P2;PMS_P1;PMS_P2;Temp;Humidity;BMP_temperature;BMP_pressure;BME280_temperature;BME280_humidity;BME280_pressure;Samples;Min_cycle;Max_cycle;Signal;HPM_P1;HPM_P2
2022/01/10 00:00:17;;;;;;;47.25;23.38;;;;;;;2.01;77.47;100853.53;5047490;28;20074;-46
2022/01/10 00:02:45;;;;;;;43.50;21.20;;;;;;;2.03;77.23;100846.22;5040616;28;21454;-46
2022/01/10 00:05:11;;;;;;;48.30;22.13;;;;;;;2.04;77.43;100859.25;5032711;28;20483;-46
2022/01/10 00:07:37;;;;;;;48.67;22.55;;;;;;;2.06;77.16;100861.69;5030182;28;20040;-46
2022/01/10 00:10:04;;;;;;;52.40;22.75;;;;;;;2.02;77.51;100858.63;5038046;28;20391;-46
2022/01/10 00:12:29;;;;;;;47.53;22.88;;;;;;;2.05;77.23;100871.47;5038425;28;20466;-46
2022/01/10 00:14:55;;;;;;;48.55;22.10;;;;;;;2.05;77.53;100876.75;5041240;28;20044;-46
2022/01/10 00:17:20;;;;;;;46.38;22.58;;;;;;;2.07;77.48;100872.09;5041572;28;20474;-46
2022/01/10 00:19:46;;;;;;;51.08;23.38;;;;;;;2.11;77.52;100885.72;5038616;28;20457;-46
2022/01/10 00:22:12;;;;;;;50.70;23.10;;;;;;;2.10;77.65;100890.19;5032324;28;20032;-46
2022/01/10 00:24:38;;;;;;;45.05;21.02;;;;;;;2.12;77.10;100893.47;5038727;28;20061;-46
2022/01/10 00:27:04;;;;;;;44.05;19.70;;;;;;;2.15;77.21;100894.09;5036513;28;20057;-46
2022/01/10 00:29:29;;;;;;;45.50;20.95;;;;;;;2.16;77.14;100891.28;5038564;28;20163;-46
2022/01/10 00:31:57;;;;;;;47.10;20.83;;;;;;;2.10;77.44;100898.13;5040160;28;20205;-46
2022/01/10 00:34:26;;;;;;;51.72;22.73;;;;;;;2.08;77.61;100892.22;5040169;28;20115;-46
2022/01/10 00:36:51;;;;;;;56.08;22.45;;;;;;;2.08;77.70;100908.06;5041431;28;20025;-46
2022/01/10 00:39:17;;;;;;;46.42;23.90;;;;;;;2.05;77.79;100905.00;5041245;28;20056;-47
2022/01/10 00:41:44;;;;;;;49.88;23.25;;;;;;;1.87;77.93;100902.78;5038862;28;20122;-46
2022/01/10 00:44:10;;;;;;;50.00;23.38;;;;;;;1.88;78.62;100911.53;5038332;28;20548;-46
2022/01/10 00:46:36;;;;;;;44.10;22.70;;;;;;;1.86;78.94;100917.00;5037265;28;20041;-46
2022/01/10 00:49:01;;;;;;;44.13;21.60;;;;;;;1.87;79.07;100918.63;5042896;28;20033;-45
2022/01/10 00:51:27;;;;;;;49.55;22.52;;;;;;;1.94;78.95;100922.16;5038343;28;20037;-46
2022/01/10 00:53:52;;;;;;;49.40;22.40;;;;;;;1.97;79.12;100927.06;5038640;28;20033;-46
2022/01/10 00:56:19;;;;;;;48.53;22.83;;;;;;;2.00;78.95;100932.00;5040097;28;20032;-46
2022/01/10 00:58:44;;;;;;;44.83;22.25;;;;;;;2.06;78.69;100931.25;5038482;28;20033;-46
2022/01/10 01:01:10;;;;;;;50.25;23.30;;;;;;;2.05;78.49;100937.53;5041099;28;20025;-47
2022/01/10 01:03:37;;;;;;;42.20;20.80;;;;;;;2.04;78.76;100938.53;5038704;28;21727;-46
2022/01/10 01:06:03;;;;;;;49.70;22.60;;;;;;;2.03;78.76;100942.19;5040462;28;20029;-46
2022/01/10 01:08:31;;;;;;;48.70;23.27;;;;;;;2.04;78.72;100943.81;5038467;28;20124;-46
2022/01/10 01:11:19;;;;;;;47.50;23.27;;;;;;;2.04;78.93;100953.56;5042152;28;20120;-45
2022/01/10 01:14:04;;;;;;;47.80;23.70;;;;;;;2.03;79.13;100957.22;5034527;28;20555;-46
2022/01/10 01:16:43;;;;;;;50.55;22.88;;;;;;;2.00;78.88;100969.00;5036831;28;20037;-46
2022/01/10 01:24:29;;;;;;;44.17;24.38;;;;;;;2.00;79.38;100971.63;5037170;28;20035;-46
2022/01/10 01:26:55;;;;;;;49.20;23.02;;;;;;;1.98;79.39;100973.66;5041244;28;20025;-46
2022/01/10 01:29:24;;;;;;;48.22;22.20;;;;;;;1.96;79.26;100977.47;5031363;28;20057;-46
2022/01/10 01:31:50;;;;;;;46.95;22.83;;;;;;;1.95;79.89;100987.22;5040777;28;20260;-46
2022/01/10 01:34:17;;;;;;;48.83;23.45;;;;;;;1.93;79.58;100988.41;5040148;28;20096;-46
2022/01/10 01:36:47;;;;;;;46.15;23.20;;;;;;;1.90;79.91;100994.88;5055050;28;20036;-45
2022/01/10 01:39:23;;;;;;;50.92;22.63;;;;;;;1.89;80.05;101000.34;5039887;28;20401;-47
2022/01/10 01:42:00;;;;;;;42.05;21.65;;;;;;;1.95;79.96;100999.59;5038801;28;20137;-46
2022/01/10 01:44:26;;;;;;;50.03;21.83;;;;;;;1.99;79.98;101012.28;5037820;28;20040;-46
2022/01/10 01:46:52;;;;;;;51.38;22.65;;;;;;;2.03;79.96;101016.19;5039877;28;20029;-46
2022/01/10 01:49:17;;;;;;;47.90;22.63;;;;;;;2.06;79.53;101018.47;5036099;28;20033;-45
2022/01/10 01:51:43;;;;;;;45.67;22.00;;;;;;;2.09;79.66;101023.38;5037822;28;20071;-46
2022/01/10 01:54:09;;;;;;;47.42;22.45;;;;;;;2.10;79.37;101027.66;5041285;28;20061;-47
2022/01/10 01:56:36;;;;;;;49.92;22.35;;;;;;;2.09;79.64;101025.19;5036837;28;20022;-46
2022/01/10 01:59:03;;;;;;;50.22;23.38;;;;;;;2.11;79.41;101026.63;5036816;28;20037;-46
2022/01/10 02:01:28;;;;;;;44.88;21.17;;;;;;;2.10;79.26;101032.94;5037996;28;20083;-46
2022/01/10 02:03:54;;;;;;;48.35;22.33;;;;;;;2.07;79.65;101035.94;5041498;28;20375;-45
2022/01/10 02:06:20;;;;;;;48.30;22.67;;;;;;;2.10;79.55;101038.22;5038353;28;20056;-46
2022/01/10 02:08:45;;;;;;;45.55;21.25;;;;;;;2.10;79.40;101054.06;5029212;28;20040;-47
2022/01/10 02:11:12;;;;;;;45.13;21.00;;;;;;;2.08;79.73;101055.28;5039447;28;20033;-46
2022/01/10 02:13:39;;;;;;;43.45;21.00;;;;;;;2.10;79.51;101080.50;5032016;28;20167;-45
2022/01/10 02:16:06;;;;;;;45.95;21.60;;;;;;;2.15;79.41;101076.50;5040045;28;20017;-46
2022/01/10 02:18:33;;;;;;;49.75;22.55;;;;;;;2.11;79.72;101082.16;5038498;28;20505;-45
2022/01/10 02:21:02;;;;;;;48.22;22.48;;;;;;;2.15;79.61;101076.50;5038334;28;20032;-46
2022/01/10 02:23:28;;;;;;;46.50;20.08;;;;;;;2.12;79.50;101081.13;5037274;28;20029;-46
2022/01/10 02:25:54;;;;;;;54.45;23.35;;;;;;;2.10;80.21;101091.09;5040112;28;20086;-46
2022/01/10 02:28:20;;;;;;;45.53;23.52;;;;;;;2.19;79.77;101093.63;5039365;28;20028;-46
2022/01/10 02:30:46;;;;;;;52.95;23.05;;;;;;;2.21;79.66;101091.63;5043102;28;20029;-48
2022/01/10 02:33:12;;;;;;;53.20;24.38;;;;;;;2.23;79.78;101097.53;5043358;28;20024;-46
2022/01/10 02:35:48;;;;;;;49.53;23.33;;;;;;;2.24;79.62;101109.75;5042346;28;20079;-45
2022/01/10 02:38:13;;;;;;;47.95;22.92;;;;;;;2.19;80.08;101112.16;5043794;28;20028;-46
2022/01/10 02:40:39;;;;;;;50.03;22.33;;;;;;;2.18;79.94;101107.88;5040195;28;20798;-46
2022/01/10 02:43:08;;;;;;;57.05;26.20;;;;;;;2.13;79.93;101118.97;5044128;28;20029;-46
2022/01/10 02:45:34;;;;;;;51.65;23.27;;;;;;;2.10;80.11;101117.50;5038377;28;20037;-48
2022/01/10 02:47:59;;;;;;;53.42;24.80;;;;;;;2.09;79.70;101117.69;5039644;28;20103;-46
2022/01/10 02:50:25;;;;;;;52.92;23.95;;;;;;;2.08;79.91;101124.81;5056802;28;20033;-46
2022/01/10 02:52:51;;;;;;;57.53;25.27;;;;;;;1.99;80.78;101136.50;5043526;28;20043;-46
2022/01/10 02:55:17;;;;;;;51.40;24.30;;;;;;;1.98;80.43;101140.13;5041520;28;20040;-46
2022/01/10 02:57:43;;;;;;;48.88;24.90;;;;;;;1.97;80.55;101138.47;5057575;28;20039;-46
2022/01/10 03:00:19;;;;;;;52.63;26.33;;;;;;;1.98;80.25;101144.59;5043656;28;20025;-47
2022/01/10 03:02:49;;;;;;;54.72;26.00;;;;;;;1.96;80.37;101146.59;5036234;28;20025;-46
2022/01/10 03:05:14;;;;;;;53.00;26.40;;;;;;;1.92;80.87;101150.59;5023539;28;20398;-47
2022/01/10 03:07:41;;;;;;;55.08;26.02;;;;;;;1.91;80.40;101160.34;5022437;28;20029;-46
2022/01/10 03:10:07;;;;;;;55.58;26.67;;;;;;;1.84;80.95;101158.63;5024348;28;20029;-46
2022/01/10 03:12:34;;;;;;;55.67;26.83;;;;;;;1.89;80.50;101166.81;5021156;28;20040;-47
2022/01/10 03:15:01;;;;;;;57.72;25.63;;;;;;;1.87;80.47;101171.47;5020435;28;20032;-46
2022/01/10 03:17:27;;;;;;;56.55;26.20;;;;;;;1.90;80.55;101173.75;5021815;28;20124;-46
2022/01/10 03:19:53;;;;;;;53.08;26.42;;;;;;;1.91;80.60;101172.75;5020486;28;20550;-47
2022/01/10 03:22:18;;;;;;;61.97;28.23;;;;;;;1.92;80.42;101182.31;5021500;28;20029;-47
2022/01/10 03:24:44;;;;;;;56.90;26.02;;;;;;;1.93;80.24;101179.47;5021524;28;20528;-47
2022/01/10 03:27:10;;;;;;;58.70;26.60;;;;;;;1.92;80.39;101179.66;5026786;28;20126;-47
2022/01/10 03:29:35;;;;;;;56.03;26.05;;;;;;;1.93;80.36;101195.34;5024826;28;20032;-48
2022/01/10 03:32:02;;;;;;;57.88;26.50;;;;;;;1.96;80.28;101199.44;5022297;28;20029;-46
2022/01/10 03:34:28;;;;;;;58.20;26.13;;;;;;;1.95;80.35;101206.53;5021134;28;20090;-47
2022/01/10 03:36:55;;;;;;;59.47;27.50;;;;;;;1.96;80.47;101216.13;5024211;28;20029;-46
2022/01/10 03:39:21;;;;;;;52.88;24.83;;;;;;;1.95;80.39;101214.47;5019587;28;20032;-46
2022/01/10 03:41:47;;;;;;;61.20;27.00;;;;;;;1.98;80.42;101227.34;5022968;28;20398;-46
2022/01/10 03:44:12;;;;;;;66.53;27.63;;;;;;;2.00;80.27;101224.53;5021913;28;20052;-47
2022/01/10 03:46:38;;;;;;;49.92;24.40;;;;;;;1.97;80.43;101236.25;5018082;28;20033;-46
2022/01/10 03:49:04;;;;;;;65.18;28.00;;;;;;;2.01;80.30;101234.91;5022021;28;20025;-46
2022/01/10 03:51:30;;;;;;;59.88;27.48;;;;;;;2.01;80.39;101242.03;5020335;28;20028;-46
2022/01/10 03:53:55;;;;;;;59.88;26.90;;;;;;;2.01;80.24;101249.97;5023041;28;20029;-47
2022/01/10 03:56:23;;;;;;;58.08;27.63;;;;;;;1.98;80.39;101250.31;5020997;28;20036;-47
2022/01/10 03:58:48;;;;;;;64.07;28.67;;;;;;;1.95;80.48;101259.41;5021853;28;20025;-47
2022/01/10 04:01:14;;;;;;;67.30;27.55;;;;;;;1.95;80.61;101263.88;5021065;28;20029;-46
2022/01/10 04:03:40;;;;;;;60.72;27.75;;;;;;;1.94;80.72;101265.69;5019903;28;20033;-46
2022/01/10 04:06:07;;;;;;;68.28;27.80;;;;;;;1.98;80.70;101267.00;5021780;28;20076;-47
2022/01/10 04:08:33;;;;;;;61.92;25.95;;;;;;;1.96;80.59;101279.53;5022188;28;20067;-46
2022/01/10 04:10:59;;;;;;;62.60;27.30;;;;;;;2.01;80.70;101298.34;5021633;28;20120;-47
2022/01/10 04:13:25;;;;;;;61.40;26.98;;;;;;;2.02;80.69;101300.00;5020286;28;20664;-46
2022/01/10 04:15:51;;;;;;;65.68;28.48;;;;;;;2.04;80.66;101297.16;5021293;28;20095;-46
2022/01/10 04:18:16;;;;;;;55.15;27.08;;;;;;;2.05;80.56;101304.09;5020568;28;20033;-46
2022/01/10 04:20:44;;;;;;;58.33;26.67;;;;;;;2.07;80.41;101307.38;5019164;28;20406;-47
2022/01/10 04:23:09;;;;;;;62.20;28.90;;;;;;;2.06;80.65;101309.19;5020327;28;20049;-46
2022/01/10 04:25:35;;;;;;;61.33;27.05;;;;;;;2.07;80.76;101321.41;5019515;28;20033;-46
2022/01/10 04:28:00;;;;;;;60.10;28.08;;;;;;;2.07;80.79;101321.41;5019288;28;20291;-47
2022/01/10 04:30:26;;;;;;;62.25;26.40;;;;;;;2.08;80.57;101325.69;5020483;28;20056;-46
2022/01/10 04:32:52;;;;;;;55.83;27.73;;;;;;;2.10;80.70;101334.28;5020605;28;20043;-47
2022/01/10 04:35:18;;;;;;;60.60;27.33;;;;;;;2.11;80.67;101338.56;5019517;28;20112;-48
2022/01/10 04:37:43;;;;;;;65.72;28.25;;;;;;;2.10;80.66;101347.50;5021260;28;20348;-46
2022/01/10 04:40:10;;;;;;;53.38;25.88;;;;;;;2.17;80.85;101349.44;5022233;28;20025;-47
2022/01/10 04:42:36;;;;;;;56.45;27.23;;;;;;;2.15;80.47;101360.16;5020348;28;20032;-47
2022/01/10 04:45:02;;;;;;;56.67;26.63;;;;;;;2.16;80.40;101353.91;5019194;28;20029;-46
2022/01/10 04:47:27;;;;;;;55.78;26.75;;;;;;;2.16;80.36;101367.13;5019945;28;20029;-48
2022/01/10 04:52:21;;;;;;;52.78;25.65;;;;;;;2.16;80.38;101371.59;5019767;28;20114;-45
2022/01/10 04:54:47;;;;;;;55.60;26.98;;;;;;;2.17;80.66;101379.34;5021205;28;20032;-47
2022/01/10 04:57:13;;;;;;;57.35;25.35;;;;;;;2.18;80.27;101383.63;5018059;28;20180;-47
2022/01/10 04:59:38;;;;;;;62.67;27.90;;;;;;;2.21;80.38;101387.72;5015011;28;20033;-46
2022/01/10 05:02:04;;;;;;;59.83;27.25;;;;;;;2.18;80.34;101394.19;5020065;28;20044;-46
2022/01/10 05:04:29;;;;;;;58.95;26.40;;;;;;;2.12;81.06;101401.00;5018164;28;20078;-46
2022/01/10 05:06:55;;;;;;;54.03;23.58;;;;;;;2.11;80.93;101404.63;5019028;28;20156;-46
2022/01/10 05:09:20;;;;;;;56.95;26.63;;;;;;;2.15;80.81;101409.56;5021464;28;20050;-47
2022/01/10 05:11:46;;;;;;;56.17;25.48;;;;;;;2.19;80.49;101416.19;5018410;28;20770;-46
2022/01/10 05:14:12;;;;;;;58.33;27.15;;;;;;;2.17;80.47;101420.81;5019006;28;20040;-46
2022/01/10 05:16:40;;;;;;;61.78;27.95;;;;;;;2.14;80.56;101419.31;5019583;28;20890;-46
2022/01/10 05:19:06;;;;;;;58.33;26.27;;;;;;;2.13;80.76;101426.44;5021067;28;20043;-46
2022/01/10 05:21:31;;;;;;;62.65;28.25;;;;;;;2.17;80.62;101441.97;5016644;28;20033;-46
2022/01/10 05:23:57;;;;;;;58.83;26.70;;;;;;;2.13;80.78;101438.81;5018775;28;20442;-47
2022/01/10 05:26:22;;;;;;;64.78;27.02;;;;;;;2.11;80.79;101452.22;5018687;28;20717;-48
2022/01/10 05:28:48;;;;;;;63.85;27.35;;;;;;;2.14;80.83;101456.34;5020346;28;20179;-47
2022/01/10 05:31:14;;;;;;;56.20;25.55;;;;;;;2.17;80.75;101457.84;5018779;28;20181;-46
2022/01/10 05:33:39;;;;;;;60.13;26.92;;;;;;;2.11;80.90;101475.19;5015046;28;20384;-46
2022/01/10 05:36:05;;;;;;;65.13;27.70;;;;;;;2.09;81.18;101482.47;5019226;28;20074;-46
2022/01/10 05:38:31;;;;;;;63.13;28.75;;;;;;;2.06;81.38;101490.75;5021441;28;20800;-46
2022/01/10 05:40:56;;;;;;;60.03;28.77;;;;;;;2.09;81.09;101493.88;5017629;28;20024;-47
2022/01/10 05:43:22;;;;;;;56.78;26.65;;;;;;;2.06;81.53;101496.88;5018784;28;20120;-47
2022/01/10 05:45:48;;;;;;;63.10;27.42;;;;;;;2.06;82.09;101501.34;5021246;28;20017;-47
2022/01/10 05:48:20;;;;;;;64.63;27.10;;;;;;;2.03;81.79;101505.16;5015411;28;20060;-46
2022/01/10 05:50:46;;;;;;;62.00;27.15;;;;;;;2.01;81.72;101507.16;5019401;28;20033;-46
2022/01/10 05:53:12;;;;;;;56.92;26.15;;;;;;;2.02;82.19;101514.09;5018903;28;20032;-46
2022/01/10 05:55:38;;;;;;;56.55;25.75;;;;;;;1.97;82.44;101526.97;5018711;28;20033;-47
2022/01/10 05:58:05;;;;;;;56.95;26.05;;;;;;;1.94;82.47;101529.97;5019311;28;21995;-46
2022/01/10 06:00:31;;;;;;;58.22;27.73;;;;;;;1.92;82.61;101537.25;5018967;28;20407;-46
2022/01/10 06:02:56;;;;;;;62.33;27.58;;;;;;;1.93;82.53;101541.53;5021542;28;20040;-46
2022/01/10 06:05:24;;;;;;;66.90;30.35;;;;;;;1.96;82.50;101545.66;5024093;28;20045;-46
2022/01/10 06:07:50;;;;;;;61.28;28.00;;;;;;;1.95;82.62;101547.47;5023436;28;20033;-46
2022/01/10 06:10:15;;;;;;;63.40;29.33;;;;;;;1.94;82.43;101556.38;5026385;28;20032;-46
2022/01/10 06:12:41;;;;;;;50.10;26.38;;;;;;;1.87;83.08;101559.91;5023232;28;20486;-46
2022/01/10 06:15:07;;;;;;;61.33;28.67;;;;;;;1.86;83.32;101571.47;5014472;28;20030;-46
2022/01/10 06:17:32;;;;;;;62.40;27.60;;;;;;;1.84;83.13;101571.63;5023464;28;20021;-45
2022/01/10 06:19:59;;;;;;;65.25;30.02;;;;;;;1.80;83.58;101581.72;5021353;28;21467;-47
2022/01/10 06:22:25;;;;;;;63.60;30.52;;;;;;;1.78;83.71;101604.00;5021820;28;20386;-48
2022/01/10 06:24:50;;;;;;;60.63;28.92;;;;;;;1.76;83.65;101600.72;5021248;28;20044;-46
2022/01/10 06:27:16;;;;;;;66.15;30.05;;;;;;;1.79;83.89;101589.81;5023053;28;20116;-47
2022/01/10 06:29:41;;;;;;;57.88;29.85;;;;;;;1.88;83.29;101598.53;5022148;28;20048;-47
2022/01/10 06:32:07;;;;;;;71.55;31.05;;;;;;;1.88;83.53;101609.13;5024879;28;20051;-46
2022/01/10 06:34:32;;;;;;;66.45;32.20;;;;;;;1.99;82.71;101614.88;5024734;28;20425;-47
2022/01/10 06:36:59;;;;;;;71.15;33.25;;;;;;;1.93;83.08;101618.19;5024396;28;20025;-48
2022/01/10 06:39:25;;;;;;;64.85;30.50;;;;;;;1.99;82.50;101617.50;5023587;28;20108;-46
2022/01/10 06:41:51;;;;;;;73.32;32.05;;;;;;;1.94;82.58;101632.22;5023186;28;20535;-48
2022/01/10 06:44:16;;;;;;;71.68;32.47;;;;;;;1.97;82.41;101643.25;5023045;28;20516;-46
2022/01/10 06:46:41;;;;;;;70.35;31.77;;;;;;;1.96;82.60;101640.78;5023056;28;20033;-46
2022/01/10 06:49:07;;;;;;;69.95;32.78;;;;;;;1.95;82.51;101647.91;5022817;28;20029;-48
2022/01/10 06:51:32;;;;;;;68.93;32.30;;;;;;;1.94;82.52;101656.00;5021471;28;20571;-46
2022/01/10 06:53:58;;;;;;;78.22;33.90;;;;;;;1.86;82.79;101653.38;5020265;28;20246;-49
2022/01/10 06:56:23;;;;;;;69.80;33.15;;;;;;;1.87;82.73;101660.31;5021529;28;20064;-46
2022/01/10 06:58:49;;;;;;;72.50;32.95;;;;;;;1.87;82.56;101666.44;5022906;28;20463;-47
2022/01/10 07:01:17;;;;;;;71.25;31.55;;;;;;;1.81;82.76;101675.88;5021254;28;20028;-48
2022/01/10 07:03:44;;;;;;;67.45;31.63;;;;;;;1.81;82.69;101680.31;5022066;28;20059;-48
2022/01/10 07:06:10;;;;;;;76.63;34.25;;;;;;;1.82;82.61;101684.63;5022392;28;20638;-46
2022/01/10 07:08:35;;;;;;;82.13;36.15;;;;;;;1.75;82.84;101684.44;5023220;28;20029;-47
2022/01/10 07:11:01;;;;;;;76.22;35.83;;;;;;;1.71;83.04;101695.53;5024134;28;20566;-48
2022/01/10 07:13:26;;;;;;;73.30;34.70;;;;;;;1.66;83.32;101703.13;5024473;28;20036;-46
2022/01/10 07:15:52;;;;;;;81.63;36.22;;;;;;;1.58;83.77;101708.41;5021880;28;20051;-46
2022/01/10 07:18:18;;;;;;;77.50;35.88;;;;;;;1.60;83.88;101717.81;5024006;28;20040;-46
2022/01/10 07:20:43;;;;;;;76.35;37.42;;;;;;;1.54;83.82;101722.94;5023213;28;20037;-46
2022/01/10 07:23:09;;;;;;;74.10;34.63;;;;;;;1.57;83.71;101722.59;5022614;28;20110;-46
2022/01/10 07:25:35;;;;;;;76.70;33.65;;;;;;;1.59;83.89;101733.81;5022811;28;20064;-48
2022/01/10 07:28:00;;;;;;;80.82;36.55;;;;;;;1.66;83.76;101742.75;5022581;28;20044;-47
2022/01/10 07:30:26;;;;;;;80.07;36.97;;;;;;;1.69;83.96;101747.69;5023022;28;20033;-46
2022/01/10 07:32:53;;;;;;;74.05;35.17;;;;;;;1.75;83.64;101758.41;5023800;28;20033;-46
2022/01/10 07:35:18;;;;;;;78.03;35.67;;;;;;;1.76;83.39;101769.81;5022092;28;20224;-48
2022/01/10 07:37:44;;;;;;;79.18;35.20;;;;;;;1.79;83.48;101778.22;5023221;28;20032;-46
2022/01/10 07:40:10;;;;;;;80.90;34.83;;;;;;;1.80;83.61;101782.56;5024879;28;20060;-48
2022/01/10 07:42:35;;;;;;;73.78;35.38;;;;;;;1.81;83.71;101788.66;5022027;28;20619;-47
2022/01/10 07:45:02;;;;;;;84.95;36.22;;;;;;;1.75;83.92;101802.50;5023612;28;20069;-46
2022/01/10 07:47:28;;;;;;;72.78;35.20;;;;;;;1.72;83.60;101805.50;5025044;28;20065;-46
2022/01/10 07:49:53;;;;;;;69.78;33.58;;;;;;;1.70;nan;101816.22;5023633;28;20120;-46
2022/01/10 07:52:19;;;;;;;77.57;34.78;;;;;;;1.70;84.26;101818.03;5019720;28;20071;-47
2022/01/10 07:54:45;;;;;;;70.90;33.58;;;;;;;1.75;84.25;101821.00;5021924;28;20494;-46
2022/01/10 07:57:10;;;;;;;76.20;35.53;;;;;;;1.82;83.91;101824.66;5021755;28;20021;-46
2022/01/10 07:59:36;;;;;;;75.97;36.63;;;;;;;1.79;84.00;101827.59;5023005;28;20395;-47
2022/01/10 08:02:01;;;;;;;80.55;35.97;;;;;;;1.78;83.95;101836.53;5025032;28;21752;-46
2022/01/10 08:04:27;;;;;;;80.10;36.05;;;;;;;1.80;84.01;101839.88;5023058;28;20188;-45
2022/01/10 08:06:53;;;;;;;77.47;34.60;;;;;;;1.88;84.15;101852.25;5023403;28;20483;-46
2022/01/10 08:09:18;;;;;;;69.72;33.55;;;;;;;1.80;83.68;101856.53;5022566;28;20119;-46
2022/01/10 08:11:44;;;;;;;77.55;34.60;;;;;;;1.86;83.50;101860.34;5036153;28;20107;-46
2022/01/10 08:14:09;;;;;;;74.85;33.63;;;;;;;1.82;83.61;101869.59;5022053;28;20126;-48
2022/01/10 08:16:35;;;;;;;76.10;36.40;;;;;;;1.70;83.86;101878.81;5022438;28;20032;-46
2022/01/10 08:19:00;;;;;;;68.78;33.50;;;;;;;1.56;84.28;101879.44;5022668;28;20092;-47
2022/01/10 08:21:26;;;;;;;78.57;35.45;;;;;;;1.59;84.37;101882.56;5021796;28;20090;-46
2022/01/10 08:23:51;;;;;;;77.50;35.35;;;;;;;1.71;84.11;101888.38;5021829;28;20041;-48
2022/01/10 08:26:17;;;;;;;75.47;34.50;;;;;;;1.78;83.96;101887.56;5020562;28;20039;-46
2022/01/10 08:28:42;;;;;;;75.38;33.60;;;;;;;1.80;84.20;101892.72;5022317;28;20287;-48
2022/01/10 08:31:11;;;;;;;72.80;35.55;;;;;;;1.76;83.73;101900.13;5022335;28;20445;-47
2022/01/10 08:33:36;;;;;;;68.03;32.28;;;;;;;1.80;83.22;101911.22;5022507;28;20025;-47
2022/01/10 08:36:02;;;;;;;71.90;32.47;;;;;;;1.73;83.54;101926.88;5020479;28;20301;-46
2022/01/10 08:38:28;;;;;;;69.15;32.67;;;;;;;1.79;83.29;101920.09;5020726;28;20033;-45
2022/01/10 08:40:53;;;;;;;69.38;33.10;;;;;;;1.82;83.53;101927.72;5020356;28;20032;-46
2022/01/10 08:43:19;;;;;;;68.00;30.63;;;;;;;1.88;83.06;101928.88;5020859;28;20479;-46
2022/01/10 08:45:44;;;;;;;74.63;31.67;;;;;;;1.89;82.87;101931.38;5023981;28;20040;-47
2022/01/10 08:48:11;;;;;;;65.78;33.15;;;;;;;1.92;82.45;101933.69;5024671;28;20041;-47
2022/01/10 08:50:36;;;;;;;73.68;32.15;;;;;;;1.95;82.51;101936.00;5021640;28;20033;-48
2022/01/10 08:53:05;;;;;;;76.25;33.72;;;;;;;1.98;82.17;101940.16;5019402;28;20510;-49
2022/01/10 08:55:30;;;;;;;65.35;31.15;;;;;;;2.01;81.63;101942.47;5020798;28;20057;-47
2022/01/10 08:57:56;;;;;;;67.63;31.42;;;;;;;2.01;81.90;101953.03;5025362;28;20617;-47
2022/01/10 09:00:22;;;;;;;73.45;33.88;;;;;;;1.96;82.08;101950.03;5021226;28;20033;-47
2022/01/10 09:02:47;;;;;;;71.13;32.50;;;;;;;1.97;82.05;101968.38;5021312;28;20090;-48
2022/01/10 09:05:13;;;;;;;72.13;32.40;;;;;;;1.93;81.98;101974.97;5021316;28;20076;-47
2022/01/10 09:07:38;;;;;;;67.88;32.40;;;;;;;1.90;81.76;101977.94;5021866;28;20653;-49
2022/01/10 09:10:05;;;;;;;69.85;32.15;;;;;;;1.87;81.81;101991.47;5020877;28;20472;-49
2022/01/10 09:12:31;;;;;;;67.82;31.60;;;;;;;1.79;82.16;101988.81;5019473;28;20099;-48
2022/01/10 09:14:57;;;;;;;67.63;30.95;;;;;;;1.87;82.05;101999.41;5020997;28;20132;-47
2022/01/10 09:17:23;;;;;;;73.60;32.97;;;;;;;1.87;82.06;102004.69;5020137;28;20025;-47
2022/01/10 09:19:48;;;;;;;80.90;34.55;;;;;;;1.93;81.82;102005.88;5020043;28;20036;-46
2022/01/10 09:22:14;;;;;;;70.78;32.70;;;;;;;1.89;81.28;102010.66;5020215;28;20482;-47
2022/01/10 09:24:40;;;;;;;70.32;33.35;;;;;;;1.89;81.44;102015.94;5021216;28;20067;-48
2022/01/10 09:27:06;;;;;;;73.18;32.33;;;;;;;1.94;81.47;102024.19;5019824;28;20069;-47
2022/01/10 09:29:32;;;;;;;73.25;33.80;;;;;;;2.01;81.37;102027.06;5021614;28;20298;-46
2022/01/10 09:31:57;;;;;;;77.85;35.28;;;;;;;2.09;81.17;102035.81;5021528;28;20040;-48
2022/01/10 09:34:22;;;;;;;74.63;32.50;;;;;;;2.12;80.53;102032.84;5021013;28;20567;-48
2022/01/10 09:36:48;;;;;;;70.30;32.65;;;;;;;2.10;80.82;102045.41;5020907;28;20021;-47
2022/01/10 09:39:14;;;;;;;74.45;34.20;;;;;;;2.04;80.85;102037.31;5024494;28;20504;-48
2022/01/10 09:41:40;;;;;;;69.05;32.50;;;;;;;2.05;80.83;102039.78;5024110;28;20478;-47
2022/01/10 09:44:09;;;;;;;70.78;31.52;;;;;;;2.12;80.81;102045.25;5025827;28;20029;-47
2022/01/10 09:46:35;;;;;;;71.13;31.10;;;;;;;2.19;80.57;102050.75;5024134;28;20377;-47
2022/01/10 09:49:04;;;;;;;66.13;30.80;;;;;;;2.20;80.36;102053.22;5024726;28;20479;-48
2022/01/10 09:51:32;;;;;;;71.18;31.38;;;;;;;2.25;80.36;102063.31;5023689;28;20494;-47
2022/01/10 09:53:59;;;;;;;67.30;32.88;;;;;;;2.31;80.16;102066.13;5024607;28;20028;-47
2022/01/10 09:56:26;;;;;;;74.57;32.33;;;;;;;2.37;79.88;102069.97;5024150;28;20028;-46
2022/01/10 09:58:53;;;;;;;62.80;29.80;;;;;;;2.40;79.96;102069.63;5025031;28;20086;-48
2022/01/10 10:01:20;;;;;;;68.72;30.30;;;;;;;2.47;79.48;102078.56;5025265;28;20036;-49
2022/01/10 10:03:50;;;;;;;69.18;31.45;;;;;;;2.45;79.36;102082.34;5024735;28;20025;-47
2022/01/10 10:06:17;;;;;;;70.22;32.67;;;;;;;2.50;78.98;102086.16;5024374;28;20029;-48
2022/01/10 10:08:43;;;;;;;71.03;31.77;;;;;;;2.50;78.88;102096.75;5024327;28;20033;-47
2022/01/10 10:11:10;;;;;;;65.10;30.77;;;;;;;2.51;79.06;102097.56;5024241;28;20032;-48
2022/01/10 10:13:54;;;;;;;65.75;31.20;;;;;;;2.46;78.65;102106.00;5025658;28;20040;-47
2022/01/10 10:16:22;;;;;;;68.97;30.80;;;;;;;2.49;78.78;102116.25;5024650;28;20041;-47
2022/01/10 10:18:48;;;;;;;75.43;31.65;;;;;;;2.45;78.87;102114.94;5025945;28;20032;-49
2022/01/10 10:21:15;;;;;;;68.38;30.08;;;;;;;2.46;79.05;102118.41;5025665;28;20033;-47
2022/01/10 10:23:46;;;;;;;67.63;31.48;;;;;;;2.52;78.88;102113.31;5023241;28;20033;-47
2022/01/10 10:26:16;;;;;;;61.75;29.08;;;;;;;2.58;78.79;102123.25;5019541;28;20030;-48
2022/01/10 10:28:44;;;;;;;65.28;30.10;;;;;;;2.64;78.63;102132.34;5023631;28;20025;-47
2022/01/10 10:31:10;;;;;;;59.25;28.27;;;;;;;2.60;78.13;102131.84;5038852;28;20029;-46
2022/01/10 10:33:46;;;;;;;63.08;30.00;;;;;;;2.61;78.41;102132.66;5024233;28;21435;-47
2022/01/10 10:36:12;;;;;;;67.45;28.95;;;;;;;2.61;78.14;102146.72;5025089;28;20326;-46
2022/01/10 10:38:37;;;;;;;67.50;30.50;;;;;;;2.63;77.92;102139.44;5023985;28;20055;-46
2022/01/10 10:41:05;;;;;;;60.58;29.15;;;;;;;2.64;78.08;102140.28;5023474;28;20123;-47
2022/01/10 10:43:36;;;;;;;63.55;28.38;;;;;;;2.64;77.93;102151.69;5025473;28;20033;-49
2022/01/10 10:46:04;;;;;;;62.78;29.63;;;;;;;2.65;78.00;102148.06;5026901;28;20081;-49
2022/01/10 10:48:33;;;;;;;54.13;27.65;;;;;;;2.66;77.99;102156.81;5022548;28;20111;-47
2022/01/10 10:50:59;;;;;;;64.93;30.58;;;;;;;2.67;77.94;102156.66;5023632;28;20659;-47
2022/01/10 10:53:29;;;;;;;69.03;31.90;;;;;;;2.58;77.05;102167.41;5024327;28;20904;-47
2022/01/10 10:55:58;;;;;;;58.55;29.42;;;;;;;2.60;77.46;102176.00;5021050;28;20030;-48
2022/01/10 10:58:26;;;;;;;63.38;29.75;;;;;;;2.72;77.95;102175.53;5024347;28;20443;-47
2022/01/10 11:00:53;;;;;;;63.38;30.15;;;;;;;2.77;77.51;102193.59;5024391;28;20700;-46
2022/01/10 11:03:19;;;;;;;59.75;28.63;;;;;;;2.79;77.43;102183.66;5021736;28;20033;-47
2022/01/10 11:05:47;;;;;;;65.82;31.05;;;;;;;2.70;76.63;102188.13;5024394;28;20306;-48
2022/01/10 11:08:13;;;;;;;63.42;29.75;;;;;;;2.71;76.68;102192.41;5022820;28;20033;-49
2022/01/10 11:10:39;;;;;;;67.25;32.33;;;;;;;2.62;76.43;102190.72;5024533;28;20036;-47
2022/01/10 11:13:05;;;;;;;70.97;31.70;;;;;;;2.64;76.37;102201.97;5023948;28;20394;-46
2022/01/10 11:15:39;;;;;;;71.18;31.50;;;;;;;2.67;76.93;102208.75;5021191;28;20763;-50
2022/01/10 11:18:07;;;;;;;61.85;30.05;;;;;;;2.66;76.43;102209.75;5021474;28;20068;-46
2022/01/10 11:20:41;;;;;;;60.65;32.08;;;;;;;2.80;76.21;102209.13;5018531;28;20167;-47